sensor_id;sensor_type;location;lat;lon;timestamp;temperature;humidity
28177;DHT22;15461;41.652;9.378;2023-05-23T00:00:45;15.20;99.90
28177;DHT22;15461;41.652;9.378;2023-05-23T00:03:12;15.20;99.90
28177;DHT22;15461;41.652;9.378;2023-05-23T00:05:38;15.20;99.90
28177;DHT22;15461;41.652;9.378;2023-05-23T00:08:04;15.20;99.90
28177;DHT22;15461;41.652;9.378;2023-05-23T00:10:30;15.20;99.90
28177;DHT22;15461;41.652;9.378;2023-05-23T00:12:56;15.10;99.90
28177;DHT22;15461;41.652;9.378;2023-05-23T00:15:22;15.10;99.90
28177;DHT22;15461;41.652;9.378;2023-05-23T00:17:49;15.20;99.90
28177;DHT22;15461;41.652;9.378;2023-05-23T00:20:15;15.20;99.90
28177;DHT22;15461;41.652;9.378;2023-05-23T00:22:41;15.10;99.90
28177;DHT22;15461;41.652;9.378;2023-05-23T00:25:08;15.10;99.90
28177;DHT22;15461;41.652;9.378;2023-05-23T00:27:35;15.10;99.90
28177;DHT22;15461;41.652;9.378;2023-05-23T00:30:01;15.00;99.90
28177;DHT22;15461;41.652;9.378;2023-05-23T00:32:27;15.00;99.90
28177;DHT22;15461;41.652;9.378;2023-05-23T00:34:53;15.00;99.90
28177;DHT22;15461;41.652;9.378;2023-05-23T00:37:21;15.00;99.90
28177;DHT22;15461;41.652;9.378;2023-05-23T00:39:47;15.00;99.90
28177;DHT22;15461;41.652;9.378;2023-05-23T00:42:13;15.00;99.90
28177;DHT22;15461;41.652;9.378;2023-05-23T00:44:39;14.90;99.90
28177;DHT22;15461;41.652;9.378;2023-05-23T00:47:06;14.90;99.90
28177;DHT22;15461;41.652;9.378;2023-05-23T00:49:33;14.90;99.90
28177;DHT22;15461;41.652;9.378;2023-05-23T00:51:59;14.90;99.90
28177;DHT22;15461;41.652;9.378;2023-05-23T00:54:28;14.90;99.90
28177;DHT22;15461;41.652;9.378;2023-05-23T00:56:56;14.90;99.90
28177;DHT22;15461;41.652;9.378;2023-05-23T00:59:23;14.90;99.90
28177;DHT22;15461;41.652;9.378;2023-05-23T01:01:51;14.90;99.90
28177;DHT22;15461;41.652;9.378;2023-05-23T01:04:19;14.90;99.90
28177;DHT22;15461;41.652;9.378;2023-05-23T01:06:45;14.90;99.90
28177;DHT22;15461;41.652;9.378;2023-05-23T01:09:14;14.90;99.90
28177;DHT22;15461;41.652;9.378;2023-05-23T01:14:26;14.80;99.90
28177;DHT22;15461;41.652;9.378;2023-05-23T01:17:02;14.80;99.90
28177;DHT22;15461;41.652;9.378;2023-05-23T01:28:04;14.70;99.90
28177;DHT22;15461;41.652;9.378;2023-05-23T01:30:35;14.70;99.90
28177;DHT22;15461;41.652;9.378;2023-05-23T01:33:04;14.60;99.90
28177;DHT22;15461;41.652;9.378;2023-05-23T01:35:31;14.60;99.90
28177;DHT22;15461;41.652;9.378;2023-05-23T01:37:57;14.60;99.90
28177;DHT22;15461;41.652;9.378;2023-05-23T01:40:23;14.60;99.90
28177;DHT22;15461;41.652;9.378;2023-05-23T01:42:50;14.50;99.90
28177;DHT22;15461;41.652;9.378;2023-05-23T01:45:17;14.50;99.90
28177;DHT22;15461;41.652;9.378;2023-05-23T01:47:44;14.60;99.90
28177;DHT22;15461;41.652;9.378;2023-05-23T01:50:11;14.50;99.90
28177;DHT22;15461;41.652;9.378;2023-05-23T01:52:37;14.50;99.90
28177;DHT22;15461;41.652;9.378;2023-05-23T01:55:05;14.50;99.90
28177;DHT22;15461;41.652;9.378;2023-05-23T01:57:38;14.40;99.90
28177;DHT22;15461;41.652;9.378;2023-05-23T02:00:05;14.40;99.90
28177;DHT22;15461;41.652;9.378;2023-05-23T02:02:39;14.40;99.90
28177;DHT22;15461;41.652;9.378;2023-05-23T02:05:08;14.40;99.90
28177;DHT22;15461;41.652;9.378;2023-05-23T02:07:35;14.40;99.90
28177;DHT22;15461;41.652;9.378;2023-05-23T02:10:01;14.40;99.90
28177;DHT22;15461;41.652;9.378;2023-05-23T02:12:27;14.40;99.90
28177;DHT22;15461;41.652;9.378;2023-05-23T02:14:53;14.40;99.90
28177;DHT22;15461;41.652;9.378;2023-05-23T02:17:20;14.30;99.90
28177;DHT22;15461;41.652;9.378;2023-05-23T02:19:47;14.30;99.90
28177;DHT22;15461;41.652;9.378;2023-05-23T02:22:13;14.30;99.90
28177;DHT22;15461;41.652;9.378;2023-05-23T02:24:40;14.30;99.90
28177;DHT22;15461;41.652;9.378;2023-05-23T02:27:06;14.30;99.90
28177;DHT22;15461;41.652;9.378;2023-05-23T02:29:32;14.20;99.90
28177;DHT22;15461;41.652;9.378;2023-05-23T02:31:58;14.20;99.90
28177;DHT22;15461;41.652;9.378;2023-05-23T02:34:24;14.20;99.90
28177;DHT22;15461;41.652;9.378;2023-05-23T02:36:49;14.10;99.90
28177;DHT22;15461;41.652;9.378;2023-05-23T02:39:16;14.10;99.90
28177;DHT22;15461;41.652;9.378;2023-05-23T02:41:44;14.10;99.90
28177;DHT22;15461;41.652;9.378;2023-05-23T02:44:10;14.10;99.90
28177;DHT22;15461;41.652;9.378;2023-05-23T02:46:36;14.10;99.90
28177;DHT22;15461;41.652;9.378;2023-05-23T02:49:03;14.10;99.90
28177;DHT22;15461;41.652;9.378;2023-05-23T02:51:29;14.00;99.90
28177;DHT22;15461;41.652;9.378;2023-05-23T02:53:57;14.00;99.90
28177;DHT22;15461;41.652;9.378;2023-05-23T02:56:23;14.00;99.90
28177;DHT22;15461;41.652;9.378;2023-05-23T02:58:51;14.00;99.90
28177;DHT22;15461;41.652;9.378;2023-05-23T03:01:18;14.00;99.90
28177;DHT22;15461;41.652;9.378;2023-05-23T03:03:45;13.90;99.90
28177;DHT22;15461;41.652;9.378;2023-05-23T03:06:11;13.90;99.90
28177;DHT22;15461;41.652;9.378;2023-05-23T03:08:40;13.90;99.90
28177;DHT22;15461;41.652;9.378;2023-05-23T03:11:06;13.90;99.90
28177;DHT22;15461;41.652;9.378;2023-05-23T03:13:33;13.90;99.90
28177;DHT22;15461;41.652;9.378;2023-05-23T03:15:59;13.80;99.90
28177;DHT22;15461;41.652;9.378;2023-05-23T03:18:25;13.80;99.90
28177;DHT22;15461;41.652;9.378;2023-05-23T03:20:51;13.80;99.90
28177;DHT22;15461;41.652;9.378;2023-05-23T03:23:17;13.80;99.90
28177;DHT22;15461;41.652;9.378;2023-05-23T03:25:44;13.80;99.90
28177;DHT22;15461;41.652;9.378;2023-05-23T03:28:09;13.70;99.90
28177;DHT22;15461;41.652;9.378;2023-05-23T03:30:37;13.80;99.90
28177;DHT22;15461;41.652;9.378;2023-05-23T03:33:03;13.80;99.90
28177;DHT22;15461;41.652;9.378;2023-05-23T03:35:29;13.70;99.90
28177;DHT22;15461;41.652;9.378;2023-05-23T03:37:55;13.80;99.90
28177;DHT22;15461;41.652;9.378;2023-05-23T03:40:21;13.80;99.90
28177;DHT22;15461;41.652;9.378;2023-05-23T03:42:49;13.70;99.90
28177;DHT22;15461;41.652;9.378;2023-05-23T03:45:25;13.70;99.90
28177;DHT22;15461;41.652;9.378;2023-05-23T03:47:52;13.70;99.90
28177;DHT22;15461;41.652;9.378;2023-05-23T03:50:18;13.70;99.90
28177;DHT22;15461;41.652;9.378;2023-05-23T03:52:45;13.70;99.90
28177;DHT22;15461;41.652;9.378;2023-05-23T03:55:12;13.80;99.90
28177;DHT22;15461;41.652;9.378;2023-05-23T03:57:37;13.80;99.90
28177;DHT22;15461;41.652;9.378;2023-05-23T04:00:04;13.90;99.90
28177;DHT22;15461;41.652;9.378;2023-05-23T04:02:42;13.90;99.90
28177;DHT22;15461;41.652;9.378;2023-05-23T04:05:09;13.90;99.90
28177;DHT22;15461;41.652;9.378;2023-05-23T04:07:37;13.90;99.90
28177;DHT22;15461;41.652;9.378;2023-05-23T04:10:03;13.90;99.90
28177;DHT22;15461;41.652;9.378;2023-05-23T04:12:30;13.90;99.90
28177;DHT22;15461;41.652;9.378;2023-05-23T04:14:56;13.90;99.90
28177;DHT22;15461;41.652;9.378;2023-05-23T04:17:23;13.90;99.90
28177;DHT22;15461;41.652;9.378;2023-05-23T04:19:50;13.90;99.90
28177;DHT22;15461;41.652;9.378;2023-05-23T04:22:17;13.80;99.90
28177;DHT22;15461;41.652;9.378;2023-05-23T04:24:44;13.80;99.90
28177;DHT22;15461;41.652;9.378;2023-05-23T04:27:10;13.90;99.90
28177;DHT22;15461;41.652;9.378;2023-05-23T04:29:38;13.90;99.90
28177;DHT22;15461;41.652;9.378;2023-05-23T04:32:05;13.90;99.90
28177;DHT22;15461;41.652;9.378;2023-05-23T04:34:31;13.90;99.90
28177;DHT22;15461;41.652;9.378;2023-05-23T04:37:01;13.90;99.90
28177;DHT22;15461;41.652;9.378;2023-05-23T04:39:28;14.00;99.90
28177;DHT22;15461;41.652;9.378;2023-05-23T04:42:17;14.00;99.90
28177;DHT22;15461;41.652;9.378;2023-05-23T04:44:53;14.10;99.90
28177;DHT22;15461;41.652;9.378;2023-05-23T04:47:35;14.10;99.90
28177;DHT22;15461;41.652;9.378;2023-05-23T04:50:07;14.20;99.90
28177;DHT22;15461;41.652;9.378;2023-05-23T04:52:34;14.20;99.90
28177;DHT22;15461;41.652;9.378;2023-05-23T04:55:01;14.30;99.90
28177;DHT22;15461;41.652;9.378;2023-05-23T04:57:27;14.40;99.90
28177;DHT22;15461;41.652;9.378;2023-05-23T04:59:53;14.50;99.90
28177;DHT22;15461;41.652;9.378;2023-05-23T05:02:19;14.60;99.90
28177;DHT22;15461;41.652;9.378;2023-05-23T05:04:45;14.70;99.90
28177;DHT22;15461;41.652;9.378;2023-05-23T05:07:11;14.80;99.90
28177;DHT22;15461;41.652;9.378;2023-05-23T05:09:38;14.90;99.90
28177;DHT22;15461;41.652;9.378;2023-05-23T05:12:04;14.90;99.90
28177;DHT22;15461;41.652;9.378;2023-05-23T05:14:30;15.00;99.90
28177;DHT22;15461;41.652;9.378;2023-05-23T05:16:56;15.10;99.90
28177;DHT22;15461;41.652;9.378;2023-05-23T05:19:26;15.20;99.90
28177;DHT22;15461;41.652;9.378;2023-05-23T05:21:52;15.30;99.90
28177;DHT22;15461;41.652;9.378;2023-05-23T05:24:17;15.40;99.90
28177;DHT22;15461;41.652;9.378;2023-05-23T05:26:47;15.50;99.90
28177;DHT22;15461;41.652;9.378;2023-05-23T05:29:14;15.60;99.90
28177;DHT22;15461;41.652;9.378;2023-05-23T05:31:41;15.80;99.90
28177;DHT22;15461;41.652;9.378;2023-05-23T05:34:08;15.90;99.90
28177;DHT22;15461;41.652;9.378;2023-05-23T05:36:34;16.10;99.90
28177;DHT22;15461;41.652;9.378;2023-05-23T05:39:01;16.20;99.90
28177;DHT22;15461;41.652;9.378;2023-05-23T05:41:27;16.40;99.90
28177;DHT22;15461;41.652;9.378;2023-05-23T05:43:53;16.50;99.90
28177;DHT22;15461;41.652;9.378;2023-05-23T05:46:20;16.60;99.90
28177;DHT22;15461;41.652;9.378;2023-05-23T05:48:46;16.80;99.90
28177;DHT22;15461;41.652;9.378;2023-05-23T05:51:15;16.90;99.90
28177;DHT22;15461;41.652;9.378;2023-05-23T05:53:43;17.10;99.90
28177;DHT22;15461;41.652;9.378;2023-05-23T05:56:09;17.20;99.90
28177;DHT22;15461;41.652;9.378;2023-05-23T05:58:37;17.40;99.90
28177;DHT22;15461;41.652;9.378;2023-05-23T06:01:07;17.50;99.90
28177;DHT22;15461;41.652;9.378;2023-05-23T06:03:34;17.70;99.90
28177;DHT22;15461;41.652;9.378;2023-05-23T06:06:00;17.80;99.90
28177;DHT22;15461;41.652;9.378;2023-05-23T06:08:26;17.90;99.90
28177;DHT22;15461;41.652;9.378;2023-05-23T06:10:52;18.10;99.90
28177;DHT22;15461;41.652;9.378;2023-05-23T06:13:18;18.20;99.90
28177;DHT22;15461;41.652;9.378;2023-05-23T06:15:49;18.30;99.90
28177;DHT22;15461;41.652;9.378;2023-05-23T06:18:16;18.50;99.90
28177;DHT22;15461;41.652;9.378;2023-05-23T06:20:42;18.60;99.90
28177;DHT22;15461;41.652;9.378;2023-05-23T06:23:13;18.70;99.90
28177;DHT22;15461;41.652;9.378;2023-05-23T06:25:39;18.80;99.90
28177;DHT22;15461;41.652;9.378;2023-05-23T06:28:05;18.90;99.90
28177;DHT22;15461;41.652;9.378;2023-05-23T06:30:31;19.10;99.90
28177;DHT22;15461;41.652;9.378;2023-05-23T06:32:58;19.20;99.90
28177;DHT22;15461;41.652;9.378;2023-05-23T06:35:24;19.40;99.90
28177;DHT22;15461;41.652;9.378;2023-05-23T06:37:50;19.60;99.90
28177;DHT22;15461;41.652;9.378;2023-05-23T06:40:17;19.70;99.90
28177;DHT22;15461;41.652;9.378;2023-05-23T06:42:43;19.80;99.90
28177;DHT22;15461;41.652;9.378;2023-05-23T06:45:18;20.00;99.90
28177;DHT22;15461;41.652;9.378;2023-05-23T06:47:44;20.20;99.90
28177;DHT22;15461;41.652;9.378;2023-05-23T06:50:11;20.30;99.90
28177;DHT22;15461;41.652;9.378;2023-05-23T06:52:37;20.40;99.90
28177;DHT22;15461;41.652;9.378;2023-05-23T06:55:04;20.50;99.90
28177;DHT22;15461;41.652;9.378;2023-05-23T06:57:30;20.60;99.90
28177;DHT22;15461;41.652;9.378;2023-05-23T06:59:58;20.70;99.90
28177;DHT22;15461;41.652;9.378;2023-05-23T07:02:24;20.70;99.90
28177;DHT22;15461;41.652;9.378;2023-05-23T07:04:50;20.80;99.90
28177;DHT22;15461;41.652;9.378;2023-05-23T07:07:32;21.00;99.90
28177;DHT22;15461;41.652;9.378;2023-05-23T07:09:58;21.10;99.90
28177;DHT22;15461;41.652;9.378;2023-05-23T07:12:25;21.20;99.90
28177;DHT22;15461;41.652;9.378;2023-05-23T07:14:51;21.30;99.90
28177;DHT22;15461;41.652;9.378;2023-05-23T07:17:18;21.40;99.90
28177;DHT22;15461;41.652;9.378;2023-05-23T07:19:46;21.40;99.90
28177;DHT22;15461;41.652;9.378;2023-05-23T07:22:12;21.50;99.90
28177;DHT22;15461;41.652;9.378;2023-05-23T07:24:40;21.60;99.90
28177;DHT22;15461;41.652;9.378;2023-05-23T07:27:06;21.70;99.90
28177;DHT22;15461;41.652;9.378;2023-05-23T07:29:34;21.70;99.90
28177;DHT22;15461;41.652;9.378;2023-05-23T07:32:00;21.80;99.90
28177;DHT22;15461;41.652;9.378;2023-05-23T07:34:27;21.90;99.90
28177;DHT22;15461;41.652;9.378;2023-05-23T07:36:56;22.00;99.90
28177;DHT22;15461;41.652;9.378;2023-05-23T07:39:24;22.10;99.90
28177;DHT22;15461;41.652;9.378;2023-05-23T07:41:56;22.10;99.90
28177;DHT22;15461;41.652;9.378;2023-05-23T07:44:22;22.10;99.90
28177;DHT22;15461;41.652;9.378;2023-05-23T07:46:49;22.10;99.90
28177;DHT22;15461;41.652;9.378;2023-05-23T07:49:15;22.20;99.90
28177;DHT22;15461;41.652;9.378;2023-05-23T07:51:41;22.20;99.90
28177;DHT22;15461;41.652;9.378;2023-05-23T07:54:09;22.30;99.90
28177;DHT22;15461;41.652;9.378;2023-05-23T07:56:38;22.20;99.90
28177;DHT22;15461;41.652;9.378;2023-05-23T07:59:05;22.20;99.90
28177;DHT22;15461;41.652;9.378;2023-05-23T08:01:33;22.20;99.90
28177;DHT22;15461;41.652;9.378;2023-05-23T08:04:03;22.20;99.90
28177;DHT22;15461;41.652;9.378;2023-05-23T08:06:43;22.10;99.90
28177;DHT22;15461;41.652;9.378;2023-05-23T08:09:12;22.10;99.90
28177;DHT22;15461;41.652;9.378;2023-05-23T08:11:43;22.20;99.90
28177;DHT22;15461;41.652;9.378;2023-05-23T08:14:10;22.40;99.90
28177;DHT22;15461;41.652;9.378;2023-05-23T08:16:36;22.40;99.90
28177;DHT22;15461;41.652;9.378;2023-05-23T08:19:04;22.40;99.90
28177;DHT22;15461;41.652;9.378;2023-05-23T08:21:31;22.40;99.90
28177;DHT22;15461;41.652;9.378;2023-05-23T08:23:57;22.40;99.90
28177;DHT22;15461;41.652;9.378;2023-05-23T08:26:26;22.50;99.90
28177;DHT22;15461;41.652;9.378;2023-05-23T08:28:55;22.50;99.90
28177;DHT22;15461;41.652;9.378;2023-05-23T08:31:21;22.70;99.90
28177;DHT22;15461;41.652;9.378;2023-05-23T08:33:48;22.70;99.90
28177;DHT22;15461;41.652;9.378;2023-05-23T08:36:14;22.70;99.90
28177;DHT22;15461;41.652;9.378;2023-05-23T08:38:41;22.80;99.90
28177;DHT22;15461;41.652;9.378;2023-05-23T08:41:22;22.80;99.90
28177;DHT22;15461;41.652;9.378;2023-05-23T08:43:51;22.80;99.90
28177;DHT22;15461;41.652;9.378;2023-05-23T08:46:24;22.80;99.90
28177;DHT22;15461;41.652;9.378;2023-05-23T08:48:52;22.60;99.90
28177;DHT22;15461;41.652;9.378;2023-05-23T08:51:21;22.60;99.90
28177;DHT22;15461;41.652;9.378;2023-05-23T08:53:48;22.50;99.90
28177;DHT22;15461;41.652;9.378;2023-05-23T08:56:15;22.50;99.90
28177;DHT22;15461;41.652;9.378;2023-05-23T08:58:45;22.50;99.90
28177;DHT22;15461;41.652;9.378;2023-05-23T09:01:13;22.50;99.90
28177;DHT22;15461;41.652;9.378;2023-05-23T09:03:40;22.50;99.90
28177;DHT22;15461;41.652;9.378;2023-05-23T09:06:27;22.40;99.90
28177;DHT22;15461;41.652;9.378;2023-05-23T09:08:55;22.50;99.90
28177;DHT22;15461;41.652;9.378;2023-05-23T09:11:23;22.60;99.90
28177;DHT22;15461;41.652;9.378;2023-05-23T09:13:49;22.70;99.90
28177;DHT22;15461;41.652;9.378;2023-05-23T09:16:17;22.70;99.90
28177;DHT22;15461;41.652;9.378;2023-05-23T09:18:53;22.60;99.90
28177;DHT22;15461;41.652;9.378;2023-05-23T09:21:23;22.70;99.90
28177;DHT22;15461;41.652;9.378;2023-05-23T09:23:57;22.80;99.90
28177;DHT22;15461;41.652;9.378;2023-05-23T09:26:25;22.90;99.90
28177;DHT22;15461;41.652;9.378;2023-05-23T09:28:56;22.90;99.90
28177;DHT22;15461;41.652;9.378;2023-05-23T09:31:27;22.70;99.90
28177;DHT22;15461;41.652;9.378;2023-05-23T09:33:57;22.70;99.90
28177;DHT22;15461;41.652;9.378;2023-05-23T09:36:27;22.60;99.90
28177;DHT22;15461;41.652;9.378;2023-05-23T09:38:55;22.70;99.90
28177;DHT22;15461;41.652;9.378;2023-05-23T09:41:22;22.90;99.90
28177;DHT22;15461;41.652;9.378;2023-05-23T09:43:53;23.00;99.90
28177;DHT22;15461;41.652;9.378;2023-05-23T09:46:21;22.90;99.90
28177;DHT22;15461;41.652;9.378;2023-05-23T09:48:50;22.80;99.90
28177;DHT22;15461;41.652;9.378;2023-05-23T09:51:18;22.90;99.90
28177;DHT22;15461;41.652;9.378;2023-05-23T09:53:48;22.90;99.90
28177;DHT22;15461;41.652;9.378;2023-05-23T09:56:18;23.00;99.90
28177;DHT22;15461;41.652;9.378;2023-05-23T09:58:49;23.10;99.90
28177;DHT22;15461;41.652;9.378;2023-05-23T10:01:16;23.20;99.90
28177;DHT22;15461;41.652;9.378;2023-05-23T10:03:48;23.30;99.90
28177;DHT22;15461;41.652;9.378;2023-05-23T10:09:03;23.60;99.90
28177;DHT22;15461;41.652;9.378;2023-05-23T10:14:05;24.20;99.90
28177;DHT22;15461;41.652;9.378;2023-05-23T10:22:09;23.90;99.90
28177;DHT22;15461;41.652;9.378;2023-05-23T10:24:36;23.80;99.90
28177;DHT22;15461;41.652;9.378;2023-05-23T10:27:02;23.80;99.90
28177;DHT22;15461;41.652;9.378;2023-05-23T10:29:29;23.80;99.90
28177;DHT22;15461;41.652;9.378;2023-05-23T10:31:56;24.00;99.90
28177;DHT22;15461;41.652;9.378;2023-05-23T10:34:45;24.10;99.90
28177;DHT22;15461;41.652;9.378;2023-05-23T10:37:24;24.20;99.90
28177;DHT22;15461;41.652;9.378;2023-05-23T10:45:22;24.00;99.90
28177;DHT22;15461;41.652;9.378;2023-05-23T10:47:50;23.90;99.90
28177;DHT22;15461;41.652;9.378;2023-05-23T10:50:34;23.90;99.90
28177;DHT22;15461;41.652;9.378;2023-05-23T10:53:03;24.00;99.90
28177;DHT22;15461;41.652;9.378;2023-05-23T10:55:36;23.90;99.90
28177;DHT22;15461;41.652;9.378;2023-05-23T10:58:22;23.80;99.90
28177;DHT22;15461;41.652;9.378;2023-05-23T11:01:04;23.70;99.90
28177;DHT22;15461;41.652;9.378;2023-05-23T11:03:32;23.70;99.90
28177;DHT22;15461;41.652;9.378;2023-05-23T11:06:00;23.70;99.90
28177;DHT22;15461;41.652;9.378;2023-05-23T11:08:28;23.50;99.90
28177;DHT22;15461;41.652;9.378;2023-05-23T11:11:03;23.50;99.90
28177;DHT22;15461;41.652;9.378;2023-05-23T11:13:57;23.50;99.90
28177;DHT22;15461;41.652;9.378;2023-05-23T11:16:31;23.40;99.90
28177;DHT22;15461;41.652;9.378;2023-05-23T11:19:33;23.20;99.90
28177;DHT22;15461;41.652;9.378;2023-05-23T11:22:00;23.20;99.90
28177;DHT22;15461;41.652;9.378;2023-05-23T11:24:52;23.30;99.90
28177;DHT22;15461;41.652;9.378;2023-05-23T11:30:01;23.40;99.90
28177;DHT22;15461;41.652;9.378;2023-05-23T11:32:29;23.50;99.90
28177;DHT22;15461;41.652;9.378;2023-05-23T11:34:59;23.70;99.90
28177;DHT22;15461;41.652;9.378;2023-05-23T11:37:26;23.90;99.90
28177;DHT22;15461;41.652;9.378;2023-05-23T11:39:52;24.00;99.90
28177;DHT22;15461;41.652;9.378;2023-05-23T11:42:18;24.30;99.90
28177;DHT22;15461;41.652;9.378;2023-05-23T11:44:48;24.40;99.90
28177;DHT22;15461;41.652;9.378;2023-05-23T11:47:14;24.50;99.90
28177;DHT22;15461;41.652;9.378;2023-05-23T11:49:41;24.60;99.90
28177;DHT22;15461;41.652;9.378;2023-05-23T11:52:08;24.70;99.90
28177;DHT22;15461;41.652;9.378;2023-05-23T11:54:34;24.70;99.90
28177;DHT22;15461;41.652;9.378;2023-05-23T11:57:01;24.70;99.90
28177;DHT22;15461;41.652;9.378;2023-05-23T11:59:27;24.80;99.90
28177;DHT22;15461;41.652;9.378;2023-05-23T12:01:53;24.80;99.90
28177;DHT22;15461;41.652;9.378;2023-05-23T12:04:19;24.80;99.90
28177;DHT22;15461;41.652;9.378;2023-05-23T12:06:46;24.70;99.90
28177;DHT22;15461;41.652;9.378;2023-05-23T12:09:13;24.60;99.90
28177;DHT22;15461;41.652;9.378;2023-05-23T12:11:40;24.70;99.90
28177;DHT22;15461;41.652;9.378;2023-05-23T12:14:07;24.70;99.90
28177;DHT22;15461;41.652;9.378;2023-05-23T12:16:35;24.80;99.90
28177;DHT22;15461;41.652;9.378;2023-05-23T12:19:04;24.80;99.90
28177;DHT22;15461;41.652;9.378;2023-05-23T12:21:47;24.80;99.90
28177;DHT22;15461;41.652;9.378;2023-05-23T12:24:23;24.80;99.90
28177;DHT22;15461;41.652;9.378;2023-05-23T12:26:54;24.70;99.90
28177;DHT22;15461;41.652;9.378;2023-05-23T12:29:26;24.60;99.90
28177;DHT22;15461;41.652;9.378;2023-05-23T12:31:52;24.60;99.90
28177;DHT22;15461;41.652;9.378;2023-05-23T12:34:19;24.80;99.90
28177;DHT22;15461;41.652;9.378;2023-05-23T12:36:46;24.70;99.90
28177;DHT22;15461;41.652;9.378;2023-05-23T12:39:14;24.70;99.90
28177;DHT22;15461;41.652;9.378;2023-05-23T12:41:44;24.60;99.90
28177;DHT22;15461;41.652;9.378;2023-05-23T12:44:14;24.60;99.90
28177;DHT22;15461;41.652;9.378;2023-05-23T12:46:41;24.60;99.90
28177;DHT22;15461;41.652;9.378;2023-05-23T12:49:07;24.80;99.90
28177;DHT22;15461;41.652;9.378;2023-05-23T12:51:33;24.80;99.90
28177;DHT22;15461;41.652;9.378;2023-05-23T12:53:58;24.70;99.90
28177;DHT22;15461;41.652;9.378;2023-05-23T12:56:24;24.80;99.90
28177;DHT22;15461;41.652;9.378;2023-05-23T12:58:51;24.80;99.90
28177;DHT22;15461;41.652;9.378;2023-05-23T13:01:19;24.80;99.90
28177;DHT22;15461;41.652;9.378;2023-05-23T13:03:44;24.70;99.90
28177;DHT22;15461;41.652;9.378;2023-05-23T13:06:10;24.50;99.90
28177;DHT22;15461;41.652;9.378;2023-05-23T13:08:37;24.50;99.90
28177;DHT22;15461;41.652;9.378;2023-05-23T13:11:03;24.60;99.90
28177;DHT22;15461;41.652;9.378;2023-05-23T13:13:30;24.60;99.90
28177;DHT22;15461;41.652;9.378;2023-05-23T13:15:58;24.60;99.90
28177;DHT22;15461;41.652;9.378;2023-05-23T13:18:24;24.60;99.90
28177;DHT22;15461;41.652;9.378;2023-05-23T13:20:50;24.60;99.90
28177;DHT22;15461;41.652;9.378;2023-05-23T13:23:16;24.70;99.90
28177;DHT22;15461;41.652;9.378;2023-05-23T13:25:42;24.60;99.90
28177;DHT22;15461;41.652;9.378;2023-05-23T13:28:08;24.70;99.90
28177;DHT22;15461;41.652;9.378;2023-05-23T13:30:35;24.70;99.90
28177;DHT22;15461;41.652;9.378;2023-05-23T13:33:01;24.70;99.90
28177;DHT22;15461;41.652;9.378;2023-05-23T13:35:27;24.60;99.90
28177;DHT22;15461;41.652;9.378;2023-05-23T13:37:53;24.60;99.90
28177;DHT22;15461;41.652;9.378;2023-05-23T13:40:20;24.60;99.90
28177;DHT22;15461;41.652;9.378;2023-05-23T13:42:47;24.60;99.90
28177;DHT22;15461;41.652;9.378;2023-05-23T13:45:15;24.60;99.90
28177;DHT22;15461;41.652;9.378;2023-05-23T13:47:43;24.60;99.90
28177;DHT22;15461;41.652;9.378;2023-05-23T13:50:09;24.60;99.90
28177;DHT22;15461;41.652;9.378;2023-05-23T13:52:35;24.60;99.90
28177;DHT22;15461;41.652;9.378;2023-05-23T13:55:03;24.60;99.90
28177;DHT22;15461;41.652;9.378;2023-05-23T13:57:29;24.70;99.90
28177;DHT22;15461;41.652;9.378;2023-05-23T13:59:55;24.60;99.90
28177;DHT22;15461;41.652;9.378;2023-05-23T14:02:21;24.60;99.90
28177;DHT22;15461;41.652;9.378;2023-05-23T14:04:47;24.70;99.90
28177;DHT22;15461;41.652;9.378;2023-05-23T14:07:16;24.70;99.90
28177;DHT22;15461;41.652;9.378;2023-05-23T14:09:42;24.80;99.90
28177;DHT22;15461;41.652;9.378;2023-05-23T14:12:08;24.80;99.90
28177;DHT22;15461;41.652;9.378;2023-05-23T14:14:34;24.80;99.90
28177;DHT22;15461;41.652;9.378;2023-05-23T14:17:00;24.70;99.90
28177;DHT22;15461;41.652;9.378;2023-05-23T14:19:26;24.60;99.90
28177;DHT22;15461;41.652;9.378;2023-05-23T14:21:52;24.60;99.90
28177;DHT22;15461;41.652;9.378;2023-05-23T14:24:17;24.60;99.90
28177;DHT22;15461;41.652;9.378;2023-05-23T14:26:43;24.60;99.90
28177;DHT22;15461;41.652;9.378;2023-05-23T14:29:09;24.70;99.90
28177;DHT22;15461;41.652;9.378;2023-05-23T14:31:35;24.70;99.90
28177;DHT22;15461;41.652;9.378;2023-05-23T14:34:01;24.70;99.90
28177;DHT22;15461;41.652;9.378;2023-05-23T14:36:27;24.60;99.90
28177;DHT22;15461;41.652;9.378;2023-05-23T14:38:53;24.70;99.90
28177;DHT22;15461;41.652;9.378;2023-05-23T14:41:19;24.70;99.90
28177;DHT22;15461;41.652;9.378;2023-05-23T14:43:46;24.80;99.90
28177;DHT22;15461;41.652;9.378;2023-05-23T14:46:12;24.80;99.90
28177;DHT22;15461;41.652;9.378;2023-05-23T14:48:40;24.90;99.90
28177;DHT22;15461;41.652;9.378;2023-05-23T14:51:06;24.90;99.90
28177;DHT22;15461;41.652;9.378;2023-05-23T14:53:32;24.90;99.90
28177;DHT22;15461;41.652;9.378;2023-05-23T14:55:58;24.90;99.90
28177;DHT22;15461;41.652;9.378;2023-05-23T14:58:24;24.80;99.90
28177;DHT22;15461;41.652;9.378;2023-05-23T15:00:50;24.90;99.90
28177;DHT22;15461;41.652;9.378;2023-05-23T15:03:16;24.80;99.90
28177;DHT22;15461;41.652;9.378;2023-05-23T15:05:43;24.80;99.90
28177;DHT22;15461;41.652;9.378;2023-05-23T15:08:10;24.80;99.90
28177;DHT22;15461;41.652;9.378;2023-05-23T15:10:36;24.80;99.90
28177;DHT22;15461;41.652;9.378;2023-05-23T15:13:02;24.80;99.90
28177;DHT22;15461;41.652;9.378;2023-05-23T15:15:28;24.80;99.90
28177;DHT22;15461;41.652;9.378;2023-05-23T15:18:02;24.80;99.90
28177;DHT22;15461;41.652;9.378;2023-05-23T15:20:34;24.70;99.90
28177;DHT22;15461;41.652;9.378;2023-05-23T15:23:04;24.70;99.90
28177;DHT22;15461;41.652;9.378;2023-05-23T15:25:30;24.60;99.90
28177;DHT22;15461;41.652;9.378;2023-05-23T15:27:56;24.60;99.90
28177;DHT22;15461;41.652;9.378;2023-05-23T15:30:22;24.60;99.90
28177;DHT22;15461;41.652;9.378;2023-05-23T15:32:48;24.60;99.90
28177;DHT22;15461;41.652;9.378;2023-05-23T15:35:14;24.60;99.90
28177;DHT22;15461;41.652;9.378;2023-05-23T15:37:41;24.40;99.90
28177;DHT22;15461;41.652;9.378;2023-05-23T15:40:07;24.40;99.90
28177;DHT22;15461;41.652;9.378;2023-05-23T15:42:37;24.50;99.90
28177;DHT22;15461;41.652;9.378;2023-05-23T15:45:03;24.40;99.90
28177;DHT22;15461;41.652;9.378;2023-05-23T15:47:29;24.40;99.90
28177;DHT22;15461;41.652;9.378;2023-05-23T15:49:55;24.30;99.90
28177;DHT22;15461;41.652;9.378;2023-05-23T15:52:21;24.20;99.90
28177;DHT22;15461;41.652;9.378;2023-05-23T15:54:47;24.30;99.90
28177;DHT22;15461;41.652;9.378;2023-05-23T15:57:13;24.30;99.90
28177;DHT22;15461;41.652;9.378;2023-05-23T15:59:38;24.30;99.90
28177;DHT22;15461;41.652;9.378;2023-05-23T16:02:05;24.30;99.90
28177;DHT22;15461;41.652;9.378;2023-05-23T16:04:31;24.20;99.90